Mingo, West Virginia
Current Conditions -  °F | °C
As of 1:51 PM on Wednesday 26 Nov 2014 (Local Time) from KEKN Reporting Station
Light Snow Light Snow  
Wind Chill: 33°   Ceiling: 1400
Heat Index: 33°   Visibility: 0.75mi
Dew Point: 33°   Wind: 0mph
Humidity: 100%   Direction: NA
Pressure: 29.97"   Gusts: NA
Location:  38.5201°N, 80.0382°W
Report Text: KEKN 261851Z AUTO 00000KT 3/4SM -SN BR FEW005 OVC014 01/01 A2997 RMK AO2 SLP169 P0003 T00060006 TSNO
Loading
Personal Weather Stations






























Interactive Weather Map New forecast layout! Learn more

10-Day Weather Forecast

Advertisements
Track Severe Weather on mobile